サイパン島 の空港の天気 - METARとTAF

サイパン国際空港 ( PGSN / SPN ) - 北マリアナ諸島 サイパン島
飛行場実況気象(Metar)
観測時間07/19 10:54 ChST (07/19 00:54 UTC)
風向・風速東北東 5m/s
視程10km以上
天気現象
全天の4割程度の雲 雲底高度 490m
全天の4割程度の雲 雲底高度 700m
気温30℃
湿度83%
気圧1011.2hPa
METARPGSN 190054Z 06010KT 10SM SCT016 SCT023 30/27 A2981 RMK AO2 SLP112 T03000267 $
過去の天気等 Google飛行場航空写真 Wunderground天気予報

過去48時間のMETAR

飛行場予報(TAF)
発表時間: 7/19 09:20 ChST (7/18 23:20 UTC)
予報対象時間: 19日10時 ChST ~ 20日10時 ChST
風向・風速北北東 4m/s
視程10km以上
天気現象周辺でしゅう雨
全天の4割程度の雲 雲底高度 490m
全天の4割程度の雲 雲底高度 1220m
PGSN 182320Z 1900/1924 02007KT P6SM VCSH SCT016 SCT040